createdAt,value
2018-11-23T00:00:02.863Z,43.36
2018-11-23T00:02:28.872Z,43.34
2018-11-23T00:04:54.847Z,43.30
2018-11-23T00:07:20.865Z,43.27
2018-11-23T00:09:46.870Z,43.28
2018-11-23T00:12:12.911Z,43.30
2018-11-23T00:14:38.893Z,43.29
2018-11-23T00:17:04.910Z,43.28
2018-11-23T00:19:30.902Z,43.28
2018-11-23T00:21:56.889Z,43.27
2018-11-23T00:24:22.876Z,43.30
2018-11-23T00:26:48.879Z,43.27
2018-11-23T00:29:14.862Z,43.31
2018-11-23T00:31:40.848Z,43.30
2018-11-23T00:34:06.845Z,43.32
2018-11-23T00:36:32.832Z,43.26
2018-11-23T00:38:58.815Z,43.20
2018-11-23T00:41:24.810Z,43.24
2018-11-23T00:43:50.859Z,43.23
2018-11-23T00:46:16.884Z,43.29
2018-11-23T00:48:42.862Z,43.23
2018-11-23T00:51:08.836Z,43.20
2018-11-23T00:53:34.850Z,43.20
2018-11-23T00:56:00.870Z,43.20
2018-11-23T00:58:26.877Z,43.16
2018-11-23T01:00:52.917Z,43.19
2018-11-23T01:03:18.935Z,43.13
2018-11-23T01:05:44.941Z,43.15
2018-11-23T01:08:10.947Z,43.13
2018-11-23T01:10:36.942Z,43.08
2018-11-23T01:13:02.940Z,43.10
2018-11-23T01:15:28.941Z,43.06
2018-11-23T01:17:54.954Z,43.05
2018-11-23T01:20:20.944Z,43.11
2018-11-23T01:22:46.954Z,43.06
2018-11-23T01:25:12.952Z,43.08
2018-11-23T01:27:38.944Z,43.13
2018-11-23T01:30:04.940Z,43.07
2018-11-23T01:32:30.917Z,43.07
2018-11-23T01:34:56.939Z,43.14
2018-11-23T01:37:22.950Z,43.02
2018-11-23T01:39:48.960Z,43.02
2018-11-23T01:42:14.971Z,43.01
2018-11-23T01:44:40.957Z,43.03
2018-11-23T01:47:06.935Z,43.05
2018-11-23T01:49:32.957Z,43.15
2018-11-23T01:51:58.947Z,43.13
2018-11-23T01:54:24.951Z,43.05
2018-11-23T01:56:50.943Z,43.06
2018-11-23T01:59:16.948Z,43.10
2018-11-23T02:01:42.974Z,43.08
2018-11-23T02:04:08.958Z,43.07
2018-11-23T02:06:34.956Z,43.11
2018-11-23T02:09:00.953Z,43.03
2018-11-23T02:11:26.948Z,43.04
2018-11-23T02:13:52.949Z,43.00
2018-11-23T02:16:18.958Z,42.98
2018-11-23T02:18:44.951Z,43.02
2018-11-23T02:21:10.944Z,42.99
2018-11-23T02:23:36.935Z,43.07
2018-11-23T02:26:02.930Z,43.04
2018-11-23T02:28:28.938Z,43.08
2018-11-23T02:30:54.942Z,43.04
2018-11-23T02:33:20.933Z,43.09
2018-11-23T02:35:46.950Z,43.07
2018-11-23T02:38:12.996Z,43.03
2018-11-23T02:40:39.006Z,43.00
2018-11-23T02:43:05.007Z,43.01
2018-11-23T02:45:30.955Z,43.06
2018-11-23T02:47:56.974Z,43.04
2018-11-23T02:50:22.974Z,43.05
2018-11-23T02:52:48.961Z,42.98
2018-11-23T02:55:14.937Z,42.99
2018-11-23T02:57:40.928Z,43.00
2018-11-23T03:00:06.924Z,43.00
2018-11-23T03:02:32.913Z,43.12
2018-11-23T03:04:58.909Z,43.04
2018-11-23T03:07:24.878Z,43.06
2018-11-23T03:09:50.882Z,42.99
2018-11-23T03:12:16.866Z,42.99
2018-11-23T03:14:42.882Z,43.03
2018-11-23T03:17:08.884Z,43.00
2018-11-23T03:19:34.901Z,42.99
2018-11-23T03:22:00.897Z,43.00
2018-11-23T03:24:26.881Z,43.00
2018-11-23T03:26:52.871Z,42.98
2018-11-23T03:29:18.900Z,42.98
2018-11-23T03:31:44.901Z,42.95
2018-11-23T03:34:10.912Z,42.94
2018-11-23T03:36:36.890Z,42.94
2018-11-23T03:39:02.867Z,42.99
2018-11-23T03:41:28.865Z,42.97
2018-11-23T03:43:54.859Z,42.95
2018-11-23T03:46:20.836Z,42.93
2018-11-23T03:48:46.830Z,42.98
2018-11-23T03:51:12.849Z,43.01
2018-11-23T03:53:38.837Z,42.95
2018-11-23T03:56:04.834Z,42.96
2018-11-23T03:58:30.859Z,42.99
2018-11-23T04:00:56.848Z,42.95
2018-11-23T04:03:22.856Z,42.98
2018-11-23T04:05:48.898Z,42.94
2018-11-23T04:08:14.855Z,42.92
2018-11-23T04:10:40.870Z,42.96
2018-11-23T04:13:06.816Z,42.94
2018-11-23T04:15:32.811Z,42.90
2018-11-23T04:17:58.783Z,42.89
2018-11-23T04:20:24.843Z,42.89
2018-11-23T04:22:50.817Z,42.90
2018-11-23T04:25:16.836Z,42.90
2018-11-23T04:27:42.848Z,42.96
2018-11-23T04:30:08.872Z,42.90
2018-11-23T04:32:34.867Z,42.88
2018-11-23T04:35:00.853Z,42.87
2018-11-23T04:37:26.850Z,42.85
2018-11-23T04:39:52.861Z,42.84
2018-11-23T04:42:18.860Z,42.79
2018-11-23T04:44:44.875Z,42.84
2018-11-23T04:47:10.872Z,42.78
2018-11-23T04:49:36.849Z,42.79
2018-11-23T04:52:02.838Z,42.78
2018-11-23T04:54:28.868Z,42.76
2018-11-23T04:56:54.864Z,42.78
2018-11-23T04:59:20.858Z,42.75
2018-11-23T05:01:46.858Z,42.78
2018-11-23T05:04:12.924Z,42.74
2018-11-23T05:06:38.933Z,42.75
2018-11-23T05:09:04.924Z,42.69
2018-11-23T05:11:30.937Z,42.74
2018-11-23T05:13:56.933Z,42.74
2018-11-23T05:16:22.931Z,42.71
2018-11-23T05:18:48.913Z,42.78
2018-11-23T05:21:14.919Z,42.73
2018-11-23T05:23:40.938Z,42.84
2018-11-23T05:26:06.919Z,42.79
2018-11-23T05:28:32.916Z,42.91
2018-11-23T05:30:58.945Z,42.98
2018-11-23T05:33:24.957Z,43.08
2018-11-23T05:35:50.941Z,43.12
2018-11-23T05:38:16.968Z,43.11
2018-11-23T05:40:42.993Z,43.08
2018-11-23T05:43:08.981Z,43.04
2018-11-23T05:45:34.981Z,43.38
2018-11-23T05:48:01.000Z,43.26
2018-11-23T05:50:27.067Z,43.07
2018-11-23T05:52:53.047Z,43.15
2018-11-23T05:55:19.211Z,43.14
2018-11-23T05:57:45.212Z,43.23
2018-11-23T06:00:11.194Z,43.21
2018-11-23T06:02:37.282Z,43.17
2018-11-23T06:05:03.294Z,43.25
2018-11-23T06:07:29.297Z,43.43
2018-11-23T06:09:55.335Z,43.45
2018-11-23T06:12:21.340Z,43.48
2018-11-23T06:14:47.347Z,43.48
2018-11-23T06:17:13.364Z,43.55
2018-11-23T06:19:39.379Z,43.57
2018-11-23T06:22:05.364Z,43.59
2018-11-23T06:24:32.141Z,43.57
2018-11-23T06:26:57.379Z,43.56
2018-11-23T06:29:23.482Z,43.58
2018-11-23T06:31:49.484Z,43.57
2018-11-23T06:34:15.478Z,43.53
2018-11-23T06:36:41.450Z,43.53
2018-11-23T06:39:07.462Z,43.55
2018-11-23T06:41:33.447Z,43.55
2018-11-23T06:43:59.484Z,43.50
2018-11-23T06:46:25.460Z,43.27
2018-11-23T06:48:51.443Z,43.31
2018-11-23T06:51:17.435Z,43.39
2018-11-23T06:53:43.440Z,43.42
2018-11-23T06:56:09.448Z,43.42
2018-11-23T06:58:35.523Z,43.50
2018-11-23T07:01:01.525Z,43.49
2018-11-23T07:03:27.541Z,43.48
2018-11-23T07:05:53.527Z,43.41
2018-11-23T07:08:19.522Z,43.44
2018-11-23T07:10:45.553Z,43.40
2018-11-23T07:13:11.562Z,43.49
2018-11-23T07:15:37.578Z,43.63
2018-11-23T07:18:03.579Z,43.72
2018-11-23T07:20:29.569Z,43.53
2018-11-23T07:22:55.604Z,43.68
2018-11-23T07:25:21.627Z,43.66
2018-11-23T07:27:47.610Z,43.62
2018-11-23T07:30:13.648Z,43.62
2018-11-23T07:32:39.663Z,43.60
2018-11-23T07:35:05.682Z,43.55
2018-11-23T07:37:31.691Z,43.45
2018-11-23T07:39:57.696Z,43.61
2018-11-23T07:42:23.706Z,43.64
2018-11-23T07:44:49.678Z,43.65
2018-11-23T07:47:15.697Z,43.86
2018-11-23T07:49:41.678Z,43.92
2018-11-23T07:52:07.728Z,43.83
2018-11-23T07:54:33.722Z,44.00
2018-11-23T07:56:59.727Z,44.07
2018-11-23T07:59:25.760Z,44.10
2018-11-23T08:01:51.753Z,44.12
2018-11-23T08:04:17.755Z,44.12
2018-11-23T08:06:43.773Z,44.15
2018-11-23T08:09:09.778Z,44.14
2018-11-23T08:11:35.844Z,44.19
2018-11-23T08:14:01.825Z,44.42
2018-11-23T08:16:27.826Z,44.48
2018-11-23T08:18:53.821Z,44.42
2018-11-23T08:21:19.832Z,44.39
2018-11-23T08:23:45.816Z,44.31
2018-11-23T08:26:11.818Z,44.28
2018-11-23T08:28:37.891Z,44.15
2018-11-23T08:31:03.872Z,44.11
2018-11-23T08:33:29.871Z,44.14
2018-11-23T08:35:55.863Z,44.41
2018-11-23T08:38:21.880Z,44.55
2018-11-23T08:40:47.929Z,44.38
2018-11-23T08:43:13.913Z,44.26
2018-11-23T08:45:39.906Z,44.48
2018-11-23T08:48:05.944Z,44.42
2018-11-23T08:50:31.900Z,44.46
2018-11-23T08:52:57.898Z,44.66
2018-11-23T08:55:23.885Z,44.71
2018-11-23T08:57:49.878Z,44.94
2018-11-23T09:00:15.898Z,44.84
2018-11-23T09:02:41.917Z,44.83
2018-11-23T09:05:07.934Z,44.75
2018-11-23T09:07:33.942Z,44.60
2018-11-23T09:09:59.932Z,44.53
2018-11-23T09:12:25.996Z,44.59
2018-11-23T09:14:52.017Z,44.62
2018-11-23T09:17:17.996Z,44.70
2018-11-23T09:19:44.041Z,44.67
2018-11-23T09:22:10.063Z,44.78
2018-11-23T09:24:36.055Z,44.72
2018-11-23T09:27:02.073Z,44.70
2018-11-23T09:29:28.134Z,44.64
2018-11-23T09:31:54.125Z,44.59
2018-11-23T09:34:20.151Z,44.62
2018-11-23T09:36:46.170Z,44.62
2018-11-23T09:39:12.236Z,44.59
2018-11-23T09:41:38.254Z,44.61
2018-11-23T09:44:04.252Z,44.54
2018-11-23T09:46:30.280Z,44.57
2018-11-23T09:48:56.315Z,44.42
2018-11-23T09:51:22.381Z,44.56
2018-11-23T09:53:48.368Z,44.59
2018-11-23T09:56:14.357Z,44.60
2018-11-23T09:58:43.598Z,44.67
2018-11-23T10:03:32.363Z,44.55
2018-11-23T10:05:58.326Z,44.59
2018-11-23T10:08:24.367Z,44.68
2018-11-23T10:10:50.353Z,44.66
2018-11-23T10:13:16.362Z,44.55
2018-11-23T10:15:42.361Z,44.59
2018-11-23T10:18:08.419Z,44.67
2018-11-23T10:20:34.572Z,44.66
2018-11-23T10:23:00.710Z,44.60
2018-11-23T10:25:26.723Z,44.64
2018-11-23T10:27:52.706Z,44.63
2018-11-23T10:30:18.729Z,44.72
2018-11-23T10:32:44.721Z,44.62
2018-11-23T10:35:10.715Z,44.68
2018-11-23T10:37:36.725Z,44.65
2018-11-23T10:40:02.783Z,44.61
2018-11-23T10:42:28.776Z,44.67
2018-11-23T10:44:54.747Z,44.72
2018-11-23T10:47:20.746Z,44.66
2018-11-23T10:49:46.875Z,44.73
2018-11-23T10:52:12.897Z,44.67
2018-11-23T10:54:38.909Z,44.70
2018-11-23T10:57:04.969Z,44.60
2018-11-23T10:59:30.933Z,44.63
2018-11-23T11:01:56.949Z,44.62
2018-11-23T11:04:22.989Z,44.60
2018-11-23T11:06:48.996Z,44.67
2018-11-23T11:09:15.015Z,44.60
2018-11-23T11:11:41.024Z,44.62
2018-11-23T11:14:06.999Z,44.48
2018-11-23T11:16:33.000Z,44.37
2018-11-23T11:18:59.023Z,44.41
2018-11-23T11:21:25.056Z,44.34
2018-11-23T11:23:51.028Z,44.34
2018-11-23T11:26:17.039Z,44.31
2018-11-23T11:28:43.012Z,44.35
2018-11-23T11:31:08.995Z,44.33
2018-11-23T11:33:35.012Z,44.23
2018-11-23T11:36:01.019Z,44.27
2018-11-23T11:38:27.056Z,44.20
2018-11-23T11:40:53.085Z,44.23
2018-11-23T11:43:19.042Z,44.21
2018-11-23T11:45:45.024Z,44.25
2018-11-23T11:48:11.048Z,44.33
2018-11-23T11:50:37.068Z,44.27
2018-11-23T11:53:03.061Z,44.31
2018-11-23T11:55:29.048Z,44.38
2018-11-23T11:57:55.062Z,44.31
2018-11-23T12:00:21.076Z,44.28
2018-11-23T12:02:47.090Z,44.35
2018-11-23T12:05:13.106Z,44.31
2018-11-23T12:07:39.125Z,44.24
2018-11-23T12:10:05.087Z,43.99
2018-11-23T12:12:31.109Z,43.82
2018-11-23T12:14:57.143Z,43.71
2018-11-23T12:17:23.146Z,43.85
2018-11-23T12:19:49.150Z,43.65
2018-11-23T12:22:15.207Z,43.40
2018-11-23T12:24:41.179Z,43.26
2018-11-23T12:27:07.274Z,43.10
2018-11-23T12:29:33.288Z,43.27
2018-11-23T12:31:59.299Z,43.34
2018-11-23T12:34:25.293Z,43.46
2018-11-23T12:36:51.329Z,43.45
2018-11-23T12:39:17.344Z,43.35
2018-11-23T12:41:43.319Z,43.38
2018-11-23T12:44:09.359Z,43.33
2018-11-23T12:46:35.358Z,43.45
2018-11-23T12:49:01.389Z,43.41
2018-11-23T12:51:27.407Z,43.51
2018-11-23T12:53:53.467Z,43.56
2018-11-23T12:56:19.498Z,43.61
2018-11-23T12:58:45.501Z,43.58
2018-11-23T13:01:11.518Z,43.71
2018-11-23T13:03:37.493Z,43.58
2018-11-23T13:06:03.516Z,43.59
2018-11-23T13:08:29.501Z,43.70
2018-11-23T13:10:55.508Z,43.76
2018-11-23T13:13:21.497Z,43.75
2018-11-23T13:15:47.492Z,43.78
2018-11-23T13:18:13.532Z,43.59
2018-11-23T13:20:39.507Z,43.54
2018-11-23T13:23:05.495Z,43.68
2018-11-23T13:25:31.463Z,43.59
2018-11-23T13:27:57.462Z,43.65
2018-11-23T13:30:23.462Z,43.62
2018-11-23T13:32:49.486Z,43.59
2018-11-23T13:35:15.462Z,43.68
2018-11-23T13:37:41.444Z,43.66
2018-11-23T13:40:07.438Z,43.69
2018-11-23T13:42:33.434Z,43.68
2018-11-23T13:44:59.485Z,43.74
2018-11-23T13:47:25.478Z,43.67
2018-11-23T13:49:51.489Z,43.82
2018-11-23T13:52:17.522Z,43.76
2018-11-23T13:54:43.509Z,43.78
2018-11-23T13:57:09.497Z,43.69
2018-11-23T13:59:35.478Z,43.73
2018-11-23T14:02:01.497Z,43.79
2018-11-23T14:04:27.506Z,43.80
2018-11-23T14:06:53.504Z,43.81
2018-11-23T14:09:19.501Z,43.85
2018-11-23T14:11:45.487Z,43.83
2018-11-23T14:14:11.497Z,43.85
2018-11-23T14:16:37.506Z,43.85
2018-11-23T14:19:03.541Z,43.89
2018-11-23T14:21:29.529Z,43.88
2018-11-23T14:23:55.542Z,43.85
2018-11-23T14:26:21.534Z,43.89
2018-11-23T14:28:47.511Z,43.91
2018-11-23T14:31:13.508Z,43.93
2018-11-23T14:33:39.529Z,43.93
2018-11-23T14:36:05.574Z,43.92
2018-11-23T14:38:31.588Z,43.93
2018-11-23T14:40:57.613Z,43.93
2018-11-23T14:43:23.597Z,43.95
2018-11-23T14:45:49.624Z,43.96
2018-11-23T14:48:15.678Z,43.99
2018-11-23T14:50:41.688Z,43.92
2018-11-23T14:53:07.676Z,43.93
2018-11-23T14:55:33.655Z,44.02
2018-11-23T14:57:59.696Z,44.04
2018-11-23T15:00:25.673Z,44.33
2018-11-23T15:02:51.655Z,44.18
2018-11-23T15:05:17.666Z,44.23
2018-11-23T15:07:43.640Z,44.13
2018-11-23T15:10:09.647Z,44.06
2018-11-23T15:12:35.705Z,43.80
2018-11-23T15:15:01.702Z,43.74
2018-11-23T15:17:27.740Z,43.43
2018-11-23T15:19:53.735Z,43.54
2018-11-23T15:22:19.734Z,43.47
2018-11-23T15:24:45.715Z,43.33
2018-11-23T15:27:11.841Z,43.42
2018-11-23T15:29:37.861Z,43.50
2018-11-23T15:32:03.826Z,43.46
2018-11-23T15:34:29.816Z,43.41
2018-11-23T15:36:55.869Z,43.53
2018-11-23T15:39:21.871Z,43.52
2018-11-23T15:41:47.872Z,43.49
2018-11-23T15:44:13.939Z,43.59
2018-11-23T15:46:39.940Z,43.61
2018-11-23T15:49:05.954Z,43.55
2018-11-23T15:51:32.009Z,43.51
2018-11-23T15:53:58.026Z,43.60
2018-11-23T15:56:24.023Z,43.57
2018-11-23T15:58:50.013Z,43.58
2018-11-23T16:01:16.001Z,43.55
2018-11-23T16:03:42.015Z,43.54
2018-11-23T16:06:08.025Z,43.54
2018-11-23T16:08:34.047Z,43.85
2018-11-23T16:11:00.061Z,45.07
2018-11-23T16:13:26.044Z,45.91
2018-11-23T16:15:52.080Z,45.79
2018-11-23T16:18:18.107Z,46.35
2018-11-23T16:20:44.091Z,46.49
2018-11-23T16:23:10.232Z,47.03
2018-11-23T16:25:36.212Z,46.94
2018-11-23T16:28:02.210Z,47.15
2018-11-23T16:30:28.226Z,47.09
2018-11-23T16:32:54.267Z,47.46
2018-11-23T16:35:20.268Z,47.02
2018-11-23T16:37:46.308Z,47.84
2018-11-23T16:40:12.286Z,47.90
2018-11-23T16:42:38.376Z,47.58
2018-11-23T16:45:04.946Z,48.44
2018-11-23T16:47:44.584Z,47.76
2018-11-23T16:50:10.739Z,47.31
2018-11-23T16:52:37.016Z,47.42
2018-11-23T16:55:02.862Z,46.96
2018-11-23T16:57:28.989Z,47.17
2018-11-23T16:59:55.128Z,46.98
2018-11-23T17:02:21.168Z,46.91
2018-11-23T17:04:47.185Z,46.65
2018-11-23T17:07:13.346Z,46.61
2018-11-23T17:09:39.337Z,47.56
2018-11-23T17:12:05.355Z,47.94
2018-11-23T17:14:31.331Z,48.34
2018-11-23T17:16:57.384Z,48.51
2018-11-23T17:19:23.355Z,48.41
2018-11-23T17:21:49.362Z,48.30
2018-11-23T17:24:15.417Z,47.87
2018-11-23T17:26:41.760Z,47.43
2018-11-23T17:29:07.777Z,47.56
2018-11-23T17:31:33.820Z,47.51
2018-11-23T17:33:59.834Z,47.64
2018-11-23T17:36:25.869Z,47.57
2018-11-23T17:38:51.906Z,47.42
2018-11-23T17:41:17.878Z,47.03
2018-11-23T17:43:43.878Z,46.73
2018-11-23T17:46:09.894Z,46.78
2018-11-23T17:48:35.864Z,46.49
2018-11-23T17:51:01.877Z,46.66
2018-11-23T17:53:27.915Z,46.54
2018-11-23T17:55:53.898Z,46.50
2018-11-23T17:58:19.891Z,46.49
2018-11-23T18:00:45.886Z,46.40
2018-11-23T18:03:11.866Z,46.55
2018-11-23T18:05:37.871Z,46.40
2018-11-23T18:08:03.877Z,46.44
2018-11-23T18:10:29.868Z,46.46
2018-11-23T18:12:55.843Z,46.50
2018-11-23T18:15:21.847Z,46.48
2018-11-23T18:17:48.873Z,46.43
2018-11-23T18:20:14.906Z,46.31
2018-11-23T18:22:40.985Z,46.31
2018-11-23T18:25:07.005Z,46.29
2018-11-23T18:27:33.617Z,46.27
2018-11-23T18:29:59.171Z,46.17
2018-11-23T18:32:26.175Z,46.16
2018-11-23T18:34:52.182Z,46.39
2018-11-23T18:37:18.269Z,46.64
2018-11-23T18:39:44.309Z,46.65
2018-11-23T18:42:10.305Z,46.76
2018-11-23T18:44:36.440Z,46.59
2018-11-23T18:47:03.359Z,46.69
2018-11-23T18:49:29.389Z,46.53
2018-11-23T18:51:55.404Z,46.74
2018-11-23T18:54:21.463Z,46.75
2018-11-23T18:56:47.461Z,46.79
2018-11-23T18:59:16.602Z,46.77
2018-11-23T19:01:42.601Z,46.93
2018-11-23T19:04:08.607Z,46.84
2018-11-23T19:06:34.664Z,46.83
2018-11-23T19:09:00.698Z,46.77
2018-11-23T19:11:26.755Z,46.83
2018-11-23T19:13:52.740Z,46.59
2018-11-23T19:16:18.751Z,46.58
2018-11-23T19:18:44.814Z,46.60
2018-11-23T19:21:10.797Z,46.50
2018-11-23T19:23:36.790Z,46.36
2018-11-23T19:26:03.130Z,46.30
2018-11-23T19:28:29.201Z,46.15
2018-11-23T19:30:55.188Z,46.17
2018-11-23T19:33:21.209Z,46.33
2018-11-23T19:35:47.213Z,46.35
2018-11-23T19:38:13.230Z,46.37
2018-11-23T19:40:39.221Z,46.29
2018-11-23T19:43:05.249Z,46.29
2018-11-23T19:45:31.228Z,46.28
2018-11-23T19:47:57.249Z,46.28
2018-11-23T19:50:23.277Z,46.35
2018-11-23T19:52:49.257Z,46.17
2018-11-23T19:55:15.253Z,46.15
2018-11-23T19:57:41.271Z,46.33
2018-11-23T20:00:07.334Z,46.27
2018-11-23T20:02:33.327Z,46.28
2018-11-23T20:04:59.373Z,46.22
2018-11-23T20:07:25.390Z,46.24
2018-11-23T20:09:51.427Z,46.24
2018-11-23T20:12:17.380Z,46.27
2018-11-23T20:14:43.362Z,46.29
2018-11-23T20:17:09.380Z,46.27
2018-11-23T20:19:35.405Z,46.23
2018-11-23T20:22:01.468Z,46.25
2018-11-23T20:24:27.445Z,46.16
2018-11-23T20:26:53.447Z,46.41
2018-11-23T20:29:19.477Z,46.39
2018-11-23T20:31:45.464Z,46.34
2018-11-23T20:34:11.494Z,46.23
2018-11-23T20:36:37.506Z,46.26
2018-11-23T20:39:03.512Z,46.16
2018-11-23T20:41:29.504Z,46.38
2018-11-23T20:43:55.495Z,46.30
2018-11-23T20:46:21.523Z,46.33
2018-11-23T20:48:47.515Z,46.37
2018-11-23T20:51:13.514Z,46.39
2018-11-23T20:53:39.482Z,46.28
2018-11-23T20:56:05.522Z,46.34
2018-11-23T20:58:31.528Z,46.43
2018-11-23T21:00:57.538Z,46.51
2018-11-23T21:03:23.544Z,46.37
2018-11-23T21:05:49.550Z,46.30
2018-11-23T21:08:15.561Z,46.33
2018-11-23T21:10:41.540Z,46.37
2018-11-23T21:13:07.564Z,46.43
2018-11-23T21:15:33.554Z,46.36
2018-11-23T21:17:59.594Z,46.35
2018-11-23T21:20:25.572Z,46.26
2018-11-23T21:22:51.592Z,46.43
2018-11-23T21:25:17.604Z,46.41
2018-11-23T21:27:43.644Z,46.47
2018-11-23T21:30:09.627Z,46.42
2018-11-23T21:32:35.633Z,46.46
2018-11-23T21:35:01.639Z,46.45
2018-11-23T21:37:27.663Z,46.49
2018-11-23T21:39:53.656Z,46.48
2018-11-23T21:42:19.638Z,46.42
2018-11-23T21:44:45.645Z,46.49
2018-11-23T21:47:11.663Z,46.43
2018-11-23T21:49:37.664Z,46.48
2018-11-23T21:52:03.690Z,46.43
2018-11-23T21:54:29.677Z,46.36
2018-11-23T21:56:55.652Z,46.45
2018-11-23T21:59:21.644Z,46.47
2018-11-23T22:01:47.658Z,46.47
2018-11-23T22:04:13.674Z,46.46
2018-11-23T22:06:39.685Z,46.53
2018-11-23T22:09:05.701Z,46.52
2018-11-23T22:11:31.708Z,46.38
2018-11-23T22:13:57.744Z,46.43
2018-11-23T22:16:23.756Z,46.45
2018-11-23T22:18:49.761Z,46.40
2018-11-23T22:21:15.742Z,46.36
2018-11-23T22:23:41.718Z,46.33
2018-11-23T22:26:07.716Z,46.45
2018-11-23T22:28:33.704Z,46.42
2018-11-23T22:30:59.914Z,46.41
2018-11-23T22:33:25.904Z,46.54
2018-11-23T22:35:51.908Z,46.33
2018-11-23T22:38:17.925Z,46.37
2018-11-23T22:40:43.903Z,46.38
2018-11-23T22:43:09.922Z,46.30
2018-11-23T22:45:36.830Z,46.25
2018-11-23T22:48:02.809Z,46.13
2018-11-23T22:50:28.801Z,46.15
2018-11-23T22:52:55.934Z,46.07
2018-11-23T22:55:21.926Z,46.06
2018-11-23T22:57:53.318Z,46.02
2018-11-23T23:00:20.589Z,45.99
2018-11-23T23:02:46.584Z,45.92
2018-11-23T23:05:12.564Z,45.90
2018-11-23T23:07:38.583Z,45.88
2018-11-23T23:10:04.612Z,45.84
2018-11-23T23:12:30.563Z,45.81
2018-11-23T23:14:56.589Z,45.79
2018-11-23T23:17:22.592Z,45.74
2018-11-23T23:19:48.630Z,45.71
2018-11-23T23:22:14.654Z,45.68
2018-11-23T23:24:40.668Z,45.65
2018-11-23T23:27:06.668Z,45.67
2018-11-23T23:29:32.689Z,45.63
2018-11-23T23:31:58.685Z,45.61
2018-11-23T23:34:24.684Z,45.52
2018-11-23T23:36:50.655Z,45.53
2018-11-23T23:39:16.655Z,45.45
2018-11-23T23:41:42.643Z,45.47
2018-11-23T23:44:08.650Z,45.44
2018-11-23T23:46:34.662Z,45.41
2018-11-23T23:49:00.663Z,45.38
2018-11-23T23:51:26.663Z,45.34
2018-11-23T23:53:52.679Z,45.29
2018-11-23T23:56:18.692Z,45.32
2018-11-23T23:58:44.699Z,45.28
